Willow, Pennsylvania
Current Conditions -  °F | °C
As of 3:53 PM on Saturday 25 Oct 2014 (Local Time) from KLNS Reporting Station
Clear Clear  
Wind Chill: 67°   Ceiling: Unl
Heat Index: 67°   Visibility: 10mi
Dew Point: 43°   Wind: 14mph
Humidity: 42%   Direction: 240°WSW
Pressure: 29.73"   Gusts: NA
Location:  39.9601°N, 76.2683°W
Report Text: KLNS 251953Z 24012KT 10SM CLR 19/06 A2973 RMK AO2 SLP068 T01940061
Loading
Personal Weather Stations






























Interactive Weather Map
Tropical Storm Tracking
New forecast layout! Learn more

10-Day Weather Forecast

Advertisements
Track Severe Weather on mobile